createdAt,value
2023-03-03T12:35:36.555Z,46784.00
2023-03-03T12:36:36.448Z,22944.00
2023-03-03T12:37:36.436Z,45152.00
2023-03-03T12:38:36.424Z,43136.00
2023-03-03T12:39:36.370Z,40800.00
2023-03-03T12:40:36.386Z,36544.00
2023-03-03T12:41:36.343Z,41472.00
2023-03-03T12:42:36.310Z,32480.00
2023-03-03T12:43:36.306Z,40256.00
2023-03-03T12:44:36.288Z,42144.00
2023-03-03T12:45:36.265Z,39552.00
2023-03-03T12:46:36.250Z,28224.00
2023-03-03T12:47:36.221Z,38592.00
2023-03-03T12:48:36.179Z,41568.00
2023-03-03T12:49:42.794Z,40256.00
2023-03-03T12:50:36.244Z,38880.00
2023-03-03T12:51:36.109Z,38336.00
2023-03-03T12:52:36.096Z,38176.00
2023-03-03T12:53:36.088Z,37440.00
2023-03-03T12:54:37.330Z,39200.00
2023-03-03T12:55:36.040Z,42720.00
2023-03-03T12:56:36.026Z,44096.00
2023-03-03T12:57:35.999Z,48480.00
2023-03-03T12:58:35.991Z,46624.00
2023-03-03T12:59:35.965Z,43840.00
2023-03-03T13:00:36.022Z,43872.00
2023-03-03T13:01:35.914Z,45504.00
2023-03-03T13:02:35.909Z,47552.00
2023-03-03T13:03:43.639Z,49152.00
2023-03-03T13:04:35.845Z,50080.00
2023-03-03T13:05:35.829Z,49120.00
2023-03-03T13:06:35.830Z,47200.00
2023-03-03T13:07:35.857Z,50528.00
2023-03-03T13:08:35.781Z,48512.00
2023-03-03T13:09:35.750Z,47904.00
2023-03-03T13:10:35.742Z,45376.00
2023-03-03T13:11:35.713Z,43456.00
2023-03-03T13:12:35.698Z,42208.00
2023-03-03T13:13:35.674Z,41856.00
2023-03-03T13:14:35.641Z,40448.00
2023-03-03T13:15:38.054Z,39552.00
2023-03-03T13:16:41.606Z,40032.00
2023-03-03T13:17:35.592Z,39264.00
2023-03-03T13:18:35.580Z,39648.00
2023-03-03T13:19:35.531Z,39456.00
2023-03-03T13:20:35.572Z,36832.00
2023-03-03T13:21:35.526Z,37952.00
2023-03-03T13:22:35.505Z,39424.00
2023-03-03T13:23:35.461Z,40448.00
2023-03-03T13:24:35.470Z,40864.00
2023-03-03T13:25:35.509Z,40160.00
2023-03-03T13:26:35.400Z,41408.00
2023-03-03T13:27:35.370Z,42912.00
2023-03-03T13:28:35.361Z,41152.00
2023-03-03T13:29:35.369Z,42624.00
2023-03-03T13:30:35.357Z,40064.00
2023-03-03T13:31:35.396Z,38240.00
2023-03-03T13:32:35.354Z,38144.00
2023-03-03T13:33:35.271Z,40160.00
2023-03-03T13:34:35.243Z,41600.00
2023-03-03T13:35:35.278Z,40192.00
2023-03-03T13:36:35.201Z,39744.00
2023-03-03T13:37:35.193Z,38784.00
2023-03-03T13:38:35.184Z,34656.00
2023-03-03T13:39:35.175Z,36896.00
2023-03-03T13:40:35.161Z,38144.00
2023-03-03T13:41:35.110Z,37984.00
2023-03-03T13:42:35.106Z,39392.00
2023-03-03T13:43:35.085Z,39520.00
2023-03-03T13:44:35.044Z,39552.00
2023-03-03T13:45:35.054Z,38816.00
2023-03-03T13:46:35.053Z,38528.00
2023-03-03T13:47:34.980Z,39264.00
2023-03-03T13:48:35.017Z,39520.00
2023-03-03T13:49:34.960Z,37568.00
2023-03-03T13:50:34.947Z,38112.00
2023-03-03T13:51:34.922Z,37152.00
2023-03-03T13:52:34.912Z,37184.00
2023-03-03T13:53:34.863Z,36416.00
2023-03-03T13:54:34.851Z,37952.00
2023-03-03T13:55:34.839Z,38848.00
2023-03-03T13:56:34.823Z,39296.00
2023-03-03T13:57:34.839Z,40064.00
2023-03-03T13:58:34.794Z,40128.00
2023-03-03T13:59:34.761Z,38240.00
2023-03-03T14:00:36.380Z,38400.00
2023-03-03T14:01:34.717Z,38880.00
2023-03-03T14:02:34.695Z,37920.00
2023-03-03T14:03:34.665Z,38496.00
2023-03-03T14:04:34.739Z,38688.00
2023-03-03T14:05:34.647Z,36896.00
2023-03-03T14:06:35.493Z,35872.00
2023-03-03T14:07:34.635Z,36288.00
2023-03-03T14:08:34.599Z,36256.00
2023-03-03T14:09:34.588Z,35968.00
2023-03-03T14:10:34.556Z,36608.00
2023-03-03T14:11:34.579Z,34400.00
2023-03-03T14:12:34.512Z,32832.00
2023-03-03T14:13:34.482Z,31968.00
2023-03-03T14:14:34.527Z,33664.00
2023-03-03T14:15:34.435Z,33696.00
2023-03-03T14:16:34.480Z,33728.00
2023-03-03T14:17:34.415Z,33248.00
2023-03-03T14:18:34.415Z,32896.00
2023-03-03T14:19:34.410Z,32608.00
2023-03-03T14:20:34.466Z,32640.00
2023-03-03T14:21:34.420Z,31296.00
2023-03-03T14:22:34.316Z,30144.00
2023-03-03T14:23:34.362Z,30144.00
2023-03-03T14:24:34.304Z,31040.00
2023-03-03T14:25:35.921Z,28256.00
2023-03-03T14:26:34.289Z,17504.00
2023-03-03T14:37:30.008Z,20928.00
2023-03-03T14:38:29.979Z,25472.00
2023-03-03T14:39:29.956Z,27328.00
2023-03-03T14:40:29.976Z,25568.00
2023-03-03T14:41:29.913Z,26016.00
2023-03-03T14:42:29.940Z,26400.00
2023-03-03T14:43:29.879Z,25600.00
2023-03-03T14:44:29.870Z,25280.00
2023-03-03T14:45:30.778Z,25344.00
2023-03-03T14:46:29.873Z,25152.00
2023-03-03T14:47:29.842Z,24960.00
2023-03-03T14:48:32.337Z,24576.00
2023-03-03T14:49:29.765Z,25024.00
2023-03-03T14:50:29.778Z,24160.00
2023-03-03T14:51:29.748Z,23776.00
2023-03-03T14:52:29.761Z,22816.00
2023-03-03T14:53:29.718Z,20672.00
2023-03-03T14:54:29.685Z,16192.00
2023-03-03T14:55:29.700Z,11080.00
2023-03-03T14:56:29.672Z,9404.00
2023-03-03T14:57:29.664Z,9276.00
2023-03-03T14:58:29.639Z,9072.00
